createdAt,value
2023-02-21T00:02:43.002Z,26.47
2023-02-21T00:05:28.551Z,27.85
2023-02-21T00:08:13.950Z,25.60
2023-02-21T00:10:59.358Z,25.63
2023-02-21T00:13:45.044Z,25.58
2023-02-21T00:16:36.890Z,26.02
2023-02-21T00:19:23.291Z,25.50
2023-02-21T00:22:09.399Z,25.17
2023-02-21T00:24:55.003Z,26.35
2023-02-21T00:27:41.036Z,22.88
2023-02-21T00:30:27.737Z,26.48
2023-02-21T00:33:13.540Z,26.30
2023-02-21T00:35:59.676Z,24.02
2023-02-21T00:38:45.344Z,20.33
2023-02-21T00:41:30.952Z,25.25
2023-02-21T00:44:16.327Z,20.83
2023-02-21T00:47:01.882Z,25.67
2023-02-21T00:49:47.830Z,23.83
2023-02-21T00:52:33.415Z,24.90
2023-02-21T00:55:18.780Z,23.17
2023-02-21T00:58:04.008Z,23.55
2023-02-21T01:00:50.023Z,23.13
2023-02-21T01:03:36.098Z,24.70
2023-02-21T01:06:21.667Z,21.80
2023-02-21T01:09:07.195Z,25.80
2023-02-21T01:11:52.536Z,19.13
2023-02-21T01:14:37.930Z,23.47
2023-02-21T01:17:23.831Z,26.30
2023-02-21T01:20:09.412Z,22.52
2023-02-21T01:22:55.697Z,19.35
2023-02-21T01:25:41.234Z,21.33
2023-02-21T01:28:26.865Z,21.45
2023-02-21T01:31:12.660Z,22.35
2023-02-21T01:33:59.794Z,24.50
2023-02-21T01:36:47.040Z,20.60
2023-02-21T01:39:33.341Z,19.63
2023-02-21T01:42:20.340Z,20.83
2023-02-21T01:45:08.291Z,23.02
2023-02-21T01:47:54.236Z,22.77
2023-02-21T01:50:48.272Z,21.80
2023-02-21T01:53:40.908Z,23.58
2023-02-21T01:56:27.635Z,21.77
2023-02-21T01:59:18.825Z,24.55
2023-02-21T02:02:19.493Z,22.38
2023-02-21T02:05:07.277Z,21.80
2023-02-21T02:07:53.755Z,23.75
2023-02-21T02:10:39.324Z,23.25
2023-02-21T02:13:55.457Z,22.60
2023-02-21T02:16:44.302Z,24.13
2023-02-21T02:19:39.071Z,23.75
2023-02-21T02:22:26.409Z,20.77
2023-02-21T02:25:10.821Z,20.30
2023-02-21T02:28:17.297Z,24.23
2023-02-21T02:31:20.206Z,23.10
2023-02-21T02:34:37.097Z,19.63
2023-02-21T02:37:33.271Z,22.95
2023-02-21T02:40:45.273Z,20.52
2023-02-21T02:43:35.447Z,22.60
2023-02-21T02:46:15.702Z,22.35
2023-02-21T02:48:47.606Z,22.75
2023-02-21T02:51:16.834Z,19.70
2023-02-21T02:53:44.762Z,24.15
2023-02-21T02:56:17.065Z,23.23
2023-02-21T02:58:57.331Z,23.33
2023-02-21T03:01:48.637Z,21.15
2023-02-21T03:04:40.915Z,21.23
2023-02-21T03:07:13.593Z,22.15
2023-02-21T03:09:54.689Z,21.98
2023-02-21T03:12:31.572Z,18.75
2023-02-21T03:15:19.840Z,23.48
2023-02-21T03:17:57.496Z,21.67
2023-02-21T03:20:26.483Z,23.50
2023-02-21T03:22:56.057Z,24.23
2023-02-21T03:25:25.890Z,17.73
2023-02-21T03:27:56.716Z,25.48
2023-02-21T03:30:26.752Z,22.35
2023-02-21T03:32:56.028Z,24.58
2023-02-21T03:35:32.087Z,22.88
2023-02-21T03:37:59.733Z,21.98
2023-02-21T03:40:31.353Z,23.63
2023-02-21T03:43:02.274Z,24.02
2023-02-21T03:45:34.781Z,23.95
2023-02-21T03:48:09.202Z,25.42
2023-02-21T03:50:38.127Z,25.60
2023-02-21T03:53:06.485Z,25.75
2023-02-21T03:55:34.678Z,27.13
2023-02-21T03:58:06.160Z,25.58
2023-02-21T04:00:35.779Z,23.52
2023-02-21T04:03:02.902Z,28.23
2023-02-21T04:05:36.127Z,25.48
2023-02-21T04:08:04.272Z,25.23
2023-02-21T04:10:35.748Z,22.63
2023-02-21T04:13:07.393Z,26.63
2023-02-21T04:15:39.812Z,26.33
2023-02-21T04:18:06.848Z,25.42
2023-02-21T04:20:33.860Z,27.73
2023-02-21T04:23:03.887Z,27.95
2023-02-21T04:25:32.188Z,24.38
2023-02-21T04:28:04.180Z,24.23
2023-02-21T04:30:31.624Z,26.13
2023-02-21T04:32:58.796Z,27.55
2023-02-21T04:35:26.063Z,23.52
2023-02-21T04:37:54.546Z,25.08
2023-02-21T04:40:21.725Z,23.92
2023-02-21T04:42:48.728Z,26.05
2023-02-21T04:45:15.780Z,24.83
2023-02-21T04:47:42.860Z,26.02
2023-02-21T04:50:09.976Z,25.40
2023-02-21T04:52:36.970Z,28.63
2023-02-21T04:55:04.143Z,25.10
2023-02-21T04:57:31.203Z,26.00
2023-02-21T04:59:59.981Z,26.05
2023-02-21T05:02:28.098Z,25.58
2023-02-21T05:04:55.453Z,28.98
2023-02-21T05:07:22.628Z,25.67
2023-02-21T05:09:50.045Z,29.73
2023-02-21T05:12:17.180Z,28.65
2023-02-21T05:14:44.204Z,29.45
2023-02-21T05:17:11.251Z,29.15
2023-02-21T05:19:38.389Z,28.20
2023-02-21T05:22:07.512Z,28.00
2023-02-21T05:24:36.704Z,30.42
2023-02-21T05:27:03.763Z,29.60
2023-02-21T05:29:30.783Z,29.40
2023-02-21T05:31:57.723Z,29.80
2023-02-21T05:34:24.788Z,28.60
2023-02-21T05:36:51.896Z,29.45
2023-02-21T05:39:18.886Z,31.20
2023-02-21T05:41:50.236Z,31.23
2023-02-21T05:44:18.076Z,28.08
2023-02-21T05:46:46.162Z,29.20
2023-02-21T05:49:13.471Z,28.20
2023-02-21T05:51:43.652Z,30.52
2023-02-21T05:54:20.038Z,31.42
2023-02-21T05:56:49.633Z,29.50
2023-02-21T05:59:19.947Z,29.75
2023-02-21T06:01:48.432Z,32.65
2023-02-21T06:04:15.861Z,30.42
2023-02-21T06:06:43.641Z,31.20
2023-02-21T06:09:11.496Z,32.00
2023-02-21T06:11:40.562Z,30.65
2023-02-21T06:14:18.521Z,29.30
2023-02-21T06:16:46.178Z,33.03
2023-02-21T06:19:16.397Z,30.90
2023-02-21T06:21:43.829Z,32.67
2023-02-21T06:24:11.879Z,31.10
2023-02-21T06:26:39.302Z,31.10
2023-02-21T06:29:07.011Z,31.02
2023-02-21T06:31:34.107Z,31.92
2023-02-21T06:34:01.543Z,33.08
2023-02-21T06:36:29.853Z,31.45
2023-02-21T06:38:57.938Z,30.95
2023-02-21T06:41:31.561Z,31.65
2023-02-21T06:43:59.870Z,32.50
2023-02-21T06:46:30.232Z,35.50
2023-02-21T06:48:58.343Z,32.63
2023-02-21T06:51:29.486Z,32.50
2023-02-21T06:53:58.476Z,32.28
2023-02-21T06:56:25.553Z,32.55
2023-02-21T06:58:52.776Z,30.98
2023-02-21T07:01:20.136Z,33.97
2023-02-21T07:03:47.768Z,28.27
2023-02-21T07:06:15.697Z,30.70
2023-02-21T07:08:45.680Z,31.50
2023-02-21T07:11:14.605Z,34.63
2023-02-21T07:13:42.355Z,35.55
2023-02-21T07:16:09.400Z,32.63
2023-02-21T07:18:36.498Z,30.95
2023-02-21T07:21:03.500Z,29.27
2023-02-21T07:23:30.587Z,31.33
2023-02-21T07:25:57.593Z,33.22
2023-02-21T07:28:24.668Z,31.00
2023-02-21T07:30:51.836Z,35.17
2023-02-21T07:33:18.820Z,34.30
2023-02-21T07:35:46.496Z,31.73
2023-02-21T07:38:25.631Z,34.30
2023-02-21T07:40:59.332Z,38.45
2023-02-21T07:43:27.985Z,36.10
2023-02-21T07:45:55.657Z,30.60
2023-02-21T07:48:23.318Z,29.25
2023-02-21T07:50:50.472Z,30.92
2023-02-21T07:53:18.197Z,32.30
2023-02-21T07:55:45.195Z,32.20
2023-02-21T07:58:12.315Z,31.13
2023-02-21T08:00:40.470Z,33.00
2023-02-21T08:03:07.849Z,34.30
2023-02-21T08:05:34.933Z,29.98
2023-02-21T08:08:04.370Z,33.78
2023-02-21T08:10:31.396Z,31.60
2023-02-21T08:12:58.263Z,30.23
2023-02-21T08:15:25.207Z,32.40
2023-02-21T08:17:53.210Z,31.23
2023-02-21T08:20:20.344Z,31.45
2023-02-21T08:22:47.636Z,30.90
2023-02-21T08:25:16.643Z,31.63
2023-02-21T08:27:44.892Z,31.70
2023-02-21T08:30:16.450Z,32.45
2023-02-21T08:32:44.075Z,29.65
2023-02-21T08:35:15.258Z,31.45
2023-02-21T08:37:49.180Z,31.13
2023-02-21T08:40:21.892Z,32.70
2023-02-21T08:42:52.046Z,31.88
2023-02-21T08:45:21.929Z,29.33
2023-02-21T08:47:49.646Z,32.20
2023-02-21T08:50:16.762Z,30.30
2023-02-21T08:52:46.473Z,31.83
2023-02-21T08:55:14.200Z,30.27
2023-02-21T08:57:41.255Z,31.30
2023-02-21T09:00:12.585Z,31.05
2023-02-21T09:02:40.284Z,30.63
2023-02-21T09:05:20.983Z,29.52
2023-02-21T09:07:55.423Z,33.30
2023-02-21T09:10:22.550Z,30.77
2023-02-21T09:12:49.572Z,31.13
2023-02-21T09:15:17.288Z,32.00
2023-02-21T09:17:45.048Z,31.48
2023-02-21T09:20:18.501Z,28.95
2023-02-21T09:22:47.220Z,28.30
2023-02-21T09:25:16.830Z,31.20
2023-02-21T09:27:43.926Z,32.60
2023-02-21T09:30:18.885Z,27.60
2023-02-21T09:32:45.955Z,29.85
2023-02-21T09:35:15.210Z,28.08
2023-02-21T09:37:45.199Z,28.73
2023-02-21T09:40:45.789Z,30.88
2023-02-21T09:43:22.936Z,24.55
2023-02-21T09:45:56.255Z,29.33
2023-02-21T09:48:24.310Z,29.13
2023-02-21T09:50:56.771Z,30.88
2023-02-21T09:53:29.621Z,27.67
2023-02-21T09:56:14.045Z,27.50
2023-02-21T09:58:44.213Z,26.83
2023-02-21T10:01:47.617Z,26.33
2023-02-21T10:04:17.600Z,25.60
2023-02-21T10:07:00.041Z,26.25
2023-02-21T10:09:43.445Z,26.23
2023-02-21T10:12:32.370Z,25.27
2023-02-21T10:15:20.450Z,23.83
2023-02-21T10:18:33.474Z,22.75
2023-02-21T10:21:05.577Z,24.20
2023-02-21T10:23:42.130Z,23.52
2023-02-21T10:26:16.952Z,25.95
2023-02-21T10:28:44.692Z,27.50
2023-02-21T10:31:20.260Z,28.60
2023-02-21T10:33:47.278Z,26.73
2023-02-21T10:36:20.014Z,25.38
2023-02-21T10:39:18.561Z,26.63
2023-02-21T10:41:46.569Z,26.35
2023-02-21T10:44:27.228Z,25.58
2023-02-21T10:47:26.071Z,25.35
2023-02-21T10:50:12.171Z,27.33
2023-02-21T10:52:50.004Z,24.58
2023-02-21T10:55:32.883Z,26.17
2023-02-21T10:58:18.335Z,25.63
2023-02-21T11:00:48.219Z,23.13
2023-02-21T11:03:18.337Z,24.38
2023-02-21T11:05:53.628Z,23.42
2023-02-21T11:08:44.390Z,26.60
2023-02-21T11:11:11.720Z,24.42
2023-02-21T11:13:38.952Z,24.70
2023-02-21T11:16:24.726Z,27.50
2023-02-21T11:19:07.043Z,26.35
2023-02-21T11:21:34.202Z,25.05
2023-02-21T11:24:05.005Z,24.75
2023-02-21T11:26:44.646Z,25.08
2023-02-21T11:29:18.441Z,26.50
2023-02-21T11:31:46.257Z,27.48
2023-02-21T11:34:16.065Z,25.83
2023-02-21T11:36:47.343Z,28.58
2023-02-21T11:39:18.012Z,26.73
2023-02-21T11:41:53.364Z,25.90
2023-02-21T11:44:39.633Z,26.75
2023-02-21T11:47:17.829Z,24.38
2023-02-21T11:50:16.627Z,22.48
2023-02-21T11:52:45.928Z,25.65
2023-02-21T11:55:21.311Z,28.90
2023-02-21T12:01:13.486Z,24.80
2023-02-21T12:04:04.735Z,25.58
2023-02-21T12:07:05.756Z,23.95
2023-02-21T12:09:44.555Z,23.55
2023-02-21T12:12:39.562Z,22.98
2023-02-21T12:15:22.737Z,23.55
2023-02-21T12:18:07.784Z,24.17
2023-02-21T12:20:46.390Z,24.70
2023-02-21T12:23:36.653Z,23.60
2023-02-21T12:26:51.617Z,25.65
2023-02-21T12:29:43.126Z,20.50
2023-02-21T12:32:49.668Z,23.00
2023-02-21T12:35:46.251Z,22.40
2023-02-21T12:41:35.590Z,22.48
2023-02-21T12:44:02.384Z,21.17
2023-02-21T12:46:55.738Z,22.27
2023-02-21T12:49:55.208Z,21.88
2023-02-21T12:52:40.693Z,21.90
2023-02-21T12:55:20.740Z,20.08
2023-02-21T12:58:04.575Z,24.02
2023-02-21T13:00:47.663Z,20.63
2023-02-21T13:03:39.160Z,20.73
2023-02-21T13:06:36.707Z,19.83
2023-02-21T13:09:06.385Z,18.45
2023-02-21T13:11:43.317Z,17.90
2023-02-21T13:14:19.073Z,16.40
2023-02-21T13:16:46.578Z,17.83
2023-02-21T13:19:14.786Z,16.02
2023-02-21T13:21:54.262Z,14.90
2023-02-21T13:25:01.347Z,14.85
2023-02-21T13:30:17.385Z,13.52
2023-02-21T13:32:57.907Z,12.95
2023-02-21T13:35:38.790Z,13.98
2023-02-21T13:38:09.059Z,12.40
2023-02-21T13:40:54.832Z,11.65
2023-02-21T13:43:29.987Z,12.45
2023-02-21T13:46:26.076Z,11.70
2023-02-21T13:49:48.246Z,9.75
2023-02-21T13:52:19.870Z,9.48
2023-02-21T13:55:20.595Z,9.05
2023-02-21T13:57:56.677Z,8.02
2023-02-21T14:00:29.667Z,6.38
2023-02-21T14:03:07.596Z,7.25
2023-02-21T14:05:46.804Z,7.75
2023-02-21T14:08:28.032Z,7.03
2023-02-21T14:11:01.828Z,6.45
2023-02-21T14:13:38.444Z,5.55
2023-02-21T14:16:08.253Z,7.00
2023-02-21T14:18:57.458Z,6.07
2023-02-21T14:21:39.285Z,5.47
2023-02-21T14:24:40.978Z,6.30
2023-02-21T14:29:41.936Z,6.25
2023-02-21T14:32:08.934Z,5.47
2023-02-21T14:34:48.056Z,6.70
2023-02-21T14:37:41.929Z,5.80
2023-02-21T14:40:14.872Z,6.20
2023-02-21T14:43:16.019Z,6.10
2023-02-21T14:46:41.080Z,6.20
2023-02-21T14:49:48.220Z,7.18
2023-02-21T14:55:55.296Z,6.13
2023-02-21T14:58:59.602Z,5.90
2023-02-21T15:01:41.270Z,6.75
2023-02-21T15:04:29.967Z,7.63
2023-02-21T17:07:09.554Z,12.15
2023-02-21T17:09:39.560Z,14.95
2023-02-21T17:12:07.645Z,12.00
2023-02-21T17:14:35.299Z,14.88
2023-02-21T17:17:02.244Z,16.25
2023-02-21T17:19:29.337Z,15.07
2023-02-21T17:21:58.369Z,14.45
2023-02-21T17:24:25.749Z,13.75
2023-02-21T17:26:54.124Z,10.45
2023-02-21T17:29:21.649Z,11.13
2023-02-21T17:31:54.268Z,10.73
2023-02-21T17:34:22.351Z,10.95
2023-02-21T17:36:51.368Z,11.98
2023-02-21T17:39:21.794Z,10.27
2023-02-21T17:41:51.034Z,11.82
2023-02-21T17:44:18.667Z,11.63
2023-02-21T17:46:54.256Z,11.23
2023-02-21T17:49:26.944Z,11.55
2023-02-21T17:51:54.688Z,11.85
2023-02-21T17:54:24.683Z,12.65
2023-02-21T17:56:52.092Z,12.25
2023-02-21T17:59:19.743Z,14.02
2023-02-21T18:01:47.301Z,12.48
2023-02-21T18:04:15.043Z,12.50
2023-02-21T18:06:43.127Z,12.68
2023-02-21T18:09:11.133Z,13.30
2023-02-21T18:11:38.467Z,14.13
2023-02-21T18:14:05.661Z,12.27
2023-02-21T18:16:32.791Z,12.38
2023-02-21T18:18:59.720Z,12.27
2023-02-21T18:21:28.923Z,11.70
2023-02-21T18:23:56.292Z,11.40
2023-02-21T18:26:23.724Z,11.55
2023-02-21T18:28:50.652Z,11.07
2023-02-21T18:31:19.493Z,12.68
2023-02-21T18:33:46.811Z,10.57
2023-02-21T18:36:13.783Z,10.65
2023-02-21T18:38:41.698Z,12.18
2023-02-21T18:41:18.453Z,11.60
2023-02-21T18:43:45.472Z,11.70
2023-02-21T18:46:16.977Z,12.35
2023-02-21T18:48:46.933Z,10.93
2023-02-21T18:51:18.863Z,11.32
2023-02-21T18:53:49.384Z,11.35
2023-02-21T18:56:19.475Z,11.27
2023-02-21T18:58:49.312Z,11.98
2023-02-21T19:01:19.248Z,11.02
2023-02-21T19:03:46.955Z,11.43
2023-02-21T19:06:17.741Z,10.95
2023-02-21T19:08:46.831Z,9.90
2023-02-21T19:11:15.790Z,11.95
2023-02-21T19:13:47.318Z,11.50
2023-02-21T19:16:15.248Z,11.45
2023-02-21T19:18:43.940Z,12.73
2023-02-21T19:21:12.533Z,10.15
2023-02-21T19:23:43.511Z,10.73
2023-02-21T19:26:10.961Z,10.05
2023-02-21T19:28:40.179Z,10.93
2023-02-21T19:31:10.445Z,9.93
2023-02-21T19:33:38.133Z,11.32
2023-02-21T19:36:07.787Z,11.90
2023-02-21T19:38:34.985Z,11.45
2023-02-21T19:41:04.937Z,10.02
2023-02-21T19:43:33.741Z,9.02
2023-02-21T19:46:01.489Z,9.95
2023-02-21T19:48:28.638Z,11.57
2023-02-21T19:50:55.872Z,11.93
2023-02-21T19:53:22.812Z,13.07
2023-02-21T19:55:49.938Z,12.73
2023-02-21T19:58:19.970Z,12.68
2023-02-21T20:00:47.255Z,13.75
2023-02-21T20:03:14.428Z,14.25
2023-02-21T20:05:41.536Z,12.35
2023-02-21T20:08:08.566Z,12.45
2023-02-21T20:10:35.591Z,12.75
2023-02-21T20:13:06.305Z,13.15
2023-02-21T20:15:35.559Z,13.38
2023-02-21T20:18:03.700Z,17.17
2023-02-21T20:20:30.829Z,14.55
2023-02-21T20:22:58.328Z,14.60
2023-02-21T20:25:25.662Z,16.63
2023-02-21T20:27:52.738Z,15.70
2023-02-21T20:30:19.944Z,15.43
2023-02-21T20:32:47.469Z,15.80
2023-02-21T20:35:14.462Z,14.95
2023-02-21T20:37:41.722Z,16.88
2023-02-21T20:40:11.328Z,15.88
2023-02-21T20:42:39.411Z,16.17
2023-02-21T20:45:07.976Z,16.85
2023-02-21T20:47:35.183Z,15.70
2023-02-21T20:50:02.171Z,16.08
2023-02-21T20:52:29.307Z,15.18
2023-02-21T20:54:56.287Z,16.73
2023-02-21T20:57:23.226Z,16.30
2023-02-21T20:59:51.353Z,18.35
2023-02-21T21:02:19.314Z,16.05
2023-02-21T21:04:48.139Z,19.17
2023-02-21T21:07:25.169Z,18.83
2023-02-21T21:09:52.282Z,16.92
2023-02-21T21:12:23.266Z,17.15
2023-02-21T21:14:53.331Z,16.63
2023-02-21T21:17:21.522Z,16.52
2023-02-21T21:19:49.612Z,17.65
2023-02-21T21:22:21.395Z,16.48
2023-02-21T21:24:51.271Z,16.00
2023-02-21T21:27:19.591Z,15.43
2023-02-21T21:29:47.091Z,17.60
2023-02-21T21:32:19.056Z,18.20
2023-02-21T21:34:49.424Z,18.90
2023-02-21T21:37:20.432Z,17.42
2023-02-21T21:39:54.453Z,17.95
2023-02-21T21:42:28.031Z,17.17
2023-02-21T21:44:56.938Z,18.23
2023-02-21T21:47:27.718Z,17.88
2023-02-21T21:49:55.497Z,18.15
2023-02-21T21:52:24.596Z,17.73
2023-02-21T21:54:51.863Z,19.83
2023-02-21T21:57:20.069Z,19.58
2023-02-21T21:59:50.095Z,19.08
2023-02-21T22:02:17.378Z,18.52
2023-02-21T22:04:45.030Z,19.95
2023-02-21T22:07:13.017Z,19.95
2023-02-21T22:09:40.271Z,18.40
2023-02-21T22:12:08.271Z,17.70
2023-02-21T22:14:35.733Z,18.63
2023-02-21T22:17:02.937Z,17.85
2023-02-21T22:19:30.062Z,17.52
2023-02-21T22:21:58.509Z,18.52
2023-02-21T22:24:25.783Z,17.15
2023-02-21T22:26:55.138Z,17.33
2023-02-21T22:29:23.226Z,17.55
2023-02-21T22:31:52.315Z,18.02
2023-02-21T22:34:25.419Z,17.10
2023-02-21T22:36:57.702Z,17.58
2023-02-21T22:39:26.987Z,19.13
2023-02-21T22:41:54.370Z,17.17
2023-02-21T22:44:24.943Z,15.55
2023-02-21T22:46:58.768Z,15.32
2023-02-21T22:49:29.163Z,14.02
2023-02-21T22:51:59.441Z,15.05
2023-02-21T22:54:26.924Z,16.00
2023-02-21T22:56:55.122Z,17.80
2023-02-21T22:59:24.441Z,16.13
2023-02-21T23:01:51.563Z,15.27
2023-02-21T23:04:26.233Z,15.40
2023-02-21T23:06:58.359Z,16.83
2023-02-21T23:09:28.851Z,18.95
2023-02-21T23:12:00.128Z,16.15
2023-02-21T23:14:28.198Z,16.05
2023-02-21T23:16:59.545Z,16.52
2023-02-21T23:19:29.317Z,16.73
2023-02-21T23:21:59.995Z,16.52
2023-02-21T23:24:28.219Z,16.52
2023-02-21T23:26:55.255Z,17.83
2023-02-21T23:29:25.932Z,17.73
2023-02-21T23:31:58.220Z,17.73
2023-02-21T23:34:40.548Z,18.27
2023-02-21T23:37:12.037Z,17.67
2023-02-21T23:39:40.859Z,17.80
2023-02-21T23:42:07.968Z,17.23
2023-02-21T23:44:36.246Z,17.05
2023-02-21T23:47:05.937Z,15.35
2023-02-21T23:49:33.084Z,17.40
2023-02-21T23:52:01.725Z,16.40
2023-02-21T23:54:28.768Z,15.60
2023-02-21T23:57:00.527Z,14.07
2023-02-21T23:59:28.535Z,12.45
